Time;durP1;ratioP1;P1;durP2;ratioP2;P2;SDS_P1;SDS_P2;PMS_P1;PMS_P2;Temp;Humidity;BMP_temperature;BMP_pressure;BME280_temperature;BME280_humidity;BME280_pressure;Samples;Min_cycle;Max_cycle;Signal;HPM_P1;HPM_P2
2022/01/24 00:00:22;;;;;;;49.60;35.83;;;;;;;5.08;85.21;103382.94;5194119;28;20552;-74
2022/01/24 00:02:54;;;;;;;49.93;34.33;;;;;;;5.07;86.04;103375.16;5208438;28;20829;-75
2022/01/24 00:05:25;;;;;;;49.33;34.43;;;;;;;5.09;86.58;103373.44;5206733;28;20026;-73
2022/01/24 00:07:56;;;;;;;50.00;33.90;;;;;;;5.14;85.16;103374.31;5209996;28;20045;-74
2022/01/24 00:10:29;;;;;;;42.37;31.70;;;;;;;5.23;85.06;103363.09;5207376;28;20033;-75
2022/01/24 00:26:59;;;;;;;39.87;30.87;;;;;;;5.06;83.35;103376.88;5207142;28;20560;-74
2022/01/24 00:29:30;;;;;;;44.20;32.27;;;;;;;5.16;82.87;103380.41;5208431;28;20018;-75
2022/01/24 00:32:02;;;;;;;46.50;34.00;;;;;;;5.02;84.06;103371.66;5201248;28;20033;-74
2022/01/24 00:34:33;;;;;;;46.83;32.33;;;;;;;5.20;83.31;103369.13;5207775;28;20033;-75
2022/01/24 00:37:05;;;;;;;42.53;29.97;;;;;;;5.17;83.71;103369.13;5207671;28;20682;-75
2022/01/24 00:39:37;;;;;;;40.93;29.03;;;;;;;5.24;81.54;103367.41;5194409;28;20037;-74
2022/01/24 00:42:56;;;;;;;41.10;29.73;;;;;;;5.14;82.46;103355.25;5215748;28;20026;-75
2022/01/24 00:45:15;;;;;;;38.93;28.03;;;;;;;5.04;80.07;103359.56;5194341;28;20412;-74
2022/01/24 00:55:43;;;;;;;35.30;25.63;;;;;;;4.84;79.09;103357.72;5209950;28;20433;-75
2022/01/24 00:58:15;;;;;;;29.57;24.00;;;;;;;4.88;78.75;103372.47;5207788;28;20022;-74
2022/01/24 01:00:46;;;;;;;32.43;24.57;;;;;;;4.93;78.68;103373.34;5207297;28;20033;-74
2022/01/24 01:03:19;;;;;;;32.80;24.73;;;;;;;4.87;78.45;103362.91;5208201;28;20053;-74
2022/01/24 01:06:04;;;;;;;32.17;25.43;;;;;;;4.96;78.58;103372.50;5208131;28;21066;-74
2022/01/24 01:19:59;;;;;;;37.20;26.37;;;;;;;4.95;78.74;103355.19;5210443;28;20104;-74
2022/01/24 01:22:30;;;;;;;34.10;26.17;;;;;;;5.00;79.39;103358.66;5210132;28;20117;-74
2022/01/24 01:25:02;;;;;;;35.53;26.97;;;;;;;5.00;80.52;103361.25;5204102;28;20030;-74
2022/01/24 01:27:39;;;;;;;35.57;26.63;;;;;;;5.10;80.93;103349.19;5208531;28;20044;-75
2022/01/24 01:30:17;;;;;;;37.50;27.03;;;;;;;4.90;78.82;103356.88;5206965;28;20493;-74
2022/01/24 01:33:06;;;;;;;32.57;25.80;;;;;;;4.96;79.93;103349.13;5209219;28;20037;-75
2022/01/24 01:36:06;;;;;;;35.80;25.40;;;;;;;4.78;79.55;103348.16;5210439;28;20034;-74
2022/01/24 01:55:41;;;;;;;29.67;22.83;;;;;;;4.88;80.42;103356.88;5201421;28;20026;-74
2022/01/24 01:58:15;;;;;;;33.87;25.47;;;;;;;4.79;80.13;103364.63;5210998;28;20030;-74
2022/01/24 02:00:51;;;;;;;30.88;23.77;;;;;;;4.80;79.49;103351.63;5212518;28;20629;-75
2022/01/24 02:03:24;;;;;;;30.10;23.50;;;;;;;4.80;80.20;103356.00;5211028;28;20046;-75
2022/01/24 02:05:56;;;;;;;34.63;25.27;;;;;;;4.79;80.39;103352.50;5209391;28;20028;-75
2022/01/24 02:08:30;;;;;;;30.70;22.90;;;;;;;4.96;79.31;103362.09;5214724;23;21214;-75
2022/01/24 02:11:01;;;;;;;33.20;25.58;;;;;;;4.83;79.91;103346.44;5193683;28;20042;-75
2022/01/24 02:13:34;;;;;;;31.50;24.30;;;;;;;4.82;79.26;103347.31;5194684;28;20635;-73
2022/01/24 02:16:26;;;;;;;33.37;25.70;;;;;;;4.78;79.93;103342.13;5208976;28;20022;-74
2022/01/24 02:19:24;;;;;;;32.77;23.87;;;;;;;4.82;80.65;103349.03;5197572;28;20029;-74
2022/01/24 02:24:39;;;;;;;38.95;24.65;;;;;;;4.77;79.49;103330.84;5209442;28;20025;-75
2022/01/24 02:27:12;;;;;;;33.33;24.03;;;;;;;4.81;79.14;103331.75;5206444;28;20028;-75
2022/01/24 02:30:13;;;;;;;31.43;23.90;;;;;;;4.89;78.53;103336.97;5211988;28;20044;-73
2022/01/24 02:32:39;;;;;;;30.03;23.27;;;;;;;4.90;78.91;103331.81;5205356;28;20034;-74
2022/01/24 02:35:11;;;;;;;32.53;24.57;;;;;;;4.93;78.16;103346.50;5209320;28;20029;-74
2022/01/24 02:37:42;;;;;;;30.40;23.67;;;;;;;4.83;79.04;103343.00;5211263;28;20478;-74
2022/01/24 02:40:17;;;;;;;29.97;22.87;;;;;;;4.75;77.27;103324.78;5200373;28;20026;-74
2022/01/24 02:48:30;;;;;;;30.77;22.10;;;;;;;4.64;77.98;103329.06;5201912;28;20670;-74
2022/01/24 02:53:50;;;;;;;32.67;23.80;;;;;;;4.76;79.76;103325.66;5211462;28;20030;-73
2022/01/24 02:56:22;;;;;;;30.23;21.80;;;;;;;4.95;78.60;103331.81;5215620;28;20040;-74
2022/01/24 02:58:53;;;;;;;29.83;23.13;;;;;;;5.09;77.82;103331.88;5210233;28;20088;-74
2022/01/24 03:01:24;;;;;;;32.30;23.83;;;;;;;5.05;79.08;103325.78;5210431;28;20464;-74
2022/01/24 03:03:55;;;;;;;29.40;22.73;;;;;;;4.97;79.46;103324.91;5209325;28;20026;-75
2022/01/24 03:06:27;;;;;;;30.40;22.93;;;;;;;5.08;78.88;103325.78;5210276;28;20037;-75
2022/01/24 03:08:58;;;;;;;33.00;22.97;;;;;;;5.10;78.62;103320.59;5200200;28;20104;-74
2022/01/24 03:11:50;;;;;;;33.00;24.37;;;;;;;4.94;79.41;103317.94;5216307;28;20041;-74
2022/01/24 03:14:24;;;;;;;31.03;23.90;;;;;;;4.95;79.35;103318.81;5214689;28;20033;-74
2022/01/24 03:16:56;;;;;;;29.27;22.23;;;;;;;4.84;79.66;103321.38;5208602;28;20570;-74
2022/01/24 03:19:27;;;;;;;28.43;21.77;;;;;;;5.00;79.80;103311.91;5210045;28;20072;-73
2022/01/24 03:21:58;;;;;;;30.37;23.17;;;;;;;5.05;78.89;103302.41;5209224;28;20026;-74
2022/01/24 03:24:30;;;;;;;31.90;23.90;;;;;;;5.07;78.90;103313.69;5194645;28;20068;-73
2022/01/24 03:27:01;;;;;;;30.30;23.87;;;;;;;5.10;77.51;103306.75;5200835;28;20030;-73
2022/01/24 03:29:33;;;;;;;30.03;24.27;;;;;;;5.14;77.27;103308.50;5210310;28;20026;-73
2022/01/24 03:32:04;;;;;;;32.63;24.67;;;;;;;5.09;77.37;103305.88;5210349;28;20665;-74
2022/01/24 03:34:35;;;;;;;32.50;24.40;;;;;;;5.07;78.60;103302.41;5200205;28;20117;-76
2022/01/24 03:37:08;;;;;;;31.57;24.47;;;;;;;5.11;78.34;103301.56;5210526;28;20026;-74
2022/01/24 03:39:39;;;;;;;33.80;24.27;;;;;;;4.86;79.15;103304.06;5209007;28;20014;-75
2022/01/24 03:42:10;;;;;;;28.33;23.57;;;;;;;5.03;79.27;103306.72;5208160;28;20041;-74
2022/01/24 03:44:44;;;;;;;33.60;25.53;;;;;;;4.91;79.60;103306.69;5210561;28;20030;-75
2022/01/24 03:50:07;;;;;;;36.37;24.83;;;;;;;4.84;78.86;103309.25;5202570;28;20034;-74
2022/01/24 03:52:38;;;;;;;32.40;23.97;;;;;;;4.84;78.13;103316.16;5209119;28;20033;-73
2022/01/24 03:55:10;;;;;;;31.80;24.77;;;;;;;4.97;78.54;103309.31;5204446;28;20033;-73
2022/01/24 03:57:41;;;;;;;32.47;24.83;;;;;;;4.96;78.18;103324.03;5209451;28;20033;-74
2022/01/24 04:00:13;;;;;;;33.13;26.80;;;;;;;4.83;79.08;103304.91;5206736;28;20033;-73
2022/01/24 04:02:44;;;;;;;32.07;24.53;;;;;;;4.74;77.22;103306.59;5208541;28;20036;-74
2022/01/24 04:05:16;;;;;;;30.90;24.60;;;;;;;4.96;77.63;103303.25;5211010;28;20021;-74
2022/01/24 04:07:47;;;;;;;30.67;24.53;;;;;;;4.82;77.24;103313.56;5211608;28;20022;-74
2022/01/24 04:10:21;;;;;;;32.43;24.80;;;;;;;5.05;78.67;103309.31;5213101;28;20046;-74
2022/01/24 04:12:53;;;;;;;32.58;24.70;;;;;;;5.07;78.08;103313.69;5207904;28;20613;-73
2022/01/24 04:15:46;;;;;;;33.63;26.40;;;;;;;4.96;78.87;103308.44;5209448;28;20022;-73
2022/01/24 04:18:43;;;;;;;32.67;24.87;;;;;;;5.17;77.31;103303.28;5199189;28;20022;-74
2022/01/24 04:24:05;;;;;;;32.63;25.17;;;;;;;5.17;77.14;103298.09;5200615;28;20034;-73
2022/01/24 04:26:38;;;;;;;34.00;24.80;;;;;;;4.95;75.51;103283.34;5209700;28;20049;-73
2022/01/24 04:29:09;;;;;;;32.77;24.90;;;;;;;5.10;76.83;103292.03;5208924;28;20129;-74
2022/01/24 04:31:43;;;;;;;31.90;24.70;;;;;;;5.03;78.66;103298.94;5199723;28;20121;-74
2022/01/24 04:34:14;;;;;;;34.20;26.33;;;;;;;5.02;78.23;103298.94;5207257;28;20034;-74
2022/01/24 04:36:46;;;;;;;37.17;26.67;;;;;;;5.12;78.33;103310.22;5208538;28;20426;-74
2022/01/24 04:39:18;;;;;;;32.07;24.83;;;;;;;5.16;77.59;103309.38;5209304;28;20033;-73
2022/01/24 04:41:53;;;;;;;32.13;24.30;;;;;;;4.94;79.13;103311.91;5212744;28;20091;-74
2022/01/24 04:52:52;;;;;;;29.73;23.03;;;;;;;5.02;77.49;103311.91;5202798;28;20116;-73
2022/01/24 04:55:23;;;;;;;31.23;25.20;;;;;;;4.99;76.87;103304.13;5213221;28;20013;-73
2022/01/24 04:57:55;;;;;;;30.00;22.83;;;;;;;5.08;77.12;103315.41;5213544;28;20535;-75
2022/01/24 05:00:26;;;;;;;33.07;24.60;;;;;;;5.14;77.00;103308.50;5210041;28;20045;-74
2022/01/24 05:02:57;;;;;;;30.27;23.37;;;;;;;5.13;77.03;103318.00;5204724;28;20095;-74
2022/01/24 05:05:29;;;;;;;30.13;23.03;;;;;;;5.14;77.43;103309.38;5211422;28;20789;-74
2022/01/24 05:08:04;;;;;;;29.97;23.50;;;;;;;4.95;78.36;103318.81;5213279;28;20548;-74
2022/01/24 05:10:42;;;;;;;33.70;25.17;;;;;;;5.08;76.71;103317.13;5212107;28;20068;-74
2022/01/24 05:24:15;;;;;;;36.50;25.50;;;;;;;5.09;78.20;103316.28;5212495;28;20378;-73
2022/01/24 05:26:46;;;;;;;31.50;23.60;;;;;;;5.10;76.45;103315.41;5213006;28;20578;-74
2022/01/24 05:29:17;;;;;;;34.97;25.00;;;;;;;4.97;77.88;103309.31;5211884;28;20037;-74
2022/01/24 05:31:48;;;;;;;30.27;24.67;;;;;;;5.13;77.63;103312.81;5211015;28;20030;-74
2022/01/24 05:34:20;;;;;;;30.37;23.70;;;;;;;5.04;78.07;103308.47;5212012;28;20034;-73
2022/01/24 05:36:51;;;;;;;31.00;23.37;;;;;;;5.11;77.67;103303.28;5211544;28;20108;-74
2022/01/24 05:39:22;;;;;;;33.73;22.40;;;;;;;5.04;76.16;103308.47;5219894;28;20022;-74
2022/01/24 05:41:54;;;;;;;27.43;21.73;;;;;;;5.02;77.48;103305.00;5210898;28;20065;-74
2022/01/24 05:44:25;;;;;;;29.73;22.20;;;;;;;4.99;76.71;103292.00;5212349;28;20030;-73
2022/01/24 05:46:56;;;;;;;30.20;23.33;;;;;;;4.88;77.71;103297.16;5211645;28;20041;-74
2022/01/24 05:49:27;;;;;;;28.03;21.73;;;;;;;4.91;76.28;103309.28;5216180;28;20036;-74
2022/01/24 05:51:59;;;;;;;31.23;23.00;;;;;;;4.74;77.71;103299.69;5212529;28;20809;-73
2022/01/24 05:54:30;;;;;;;29.73;22.93;;;;;;;4.87;78.32;103313.59;5209314;28;20041;-74
2022/01/24 05:57:02;;;;;;;32.40;22.63;;;;;;;5.00;76.96;103317.09;5195522;28;20128;-74
2022/01/24 05:59:34;;;;;;;30.40;22.90;;;;;;;4.96;77.70;103313.63;5201014;28;20034;-74
2022/01/24 06:02:06;;;;;;;31.13;23.27;;;;;;;5.03;77.36;103300.66;5201244;28;20037;-73
2022/01/24 06:04:37;;;;;;;31.03;23.30;;;;;;;4.75;77.65;103306.59;5200603;28;20034;-74
2022/01/24 06:07:08;;;;;;;28.77;22.17;;;;;;;4.94;76.28;103310.16;5201181;28;20809;-74
2022/01/24 06:09:39;;;;;;;29.27;22.63;;;;;;;4.88;76.77;103314.47;5200686;28;20060;-74
2022/01/24 06:12:11;;;;;;;33.47;25.00;;;;;;;4.93;77.07;103307.56;5200109;28;20033;-73
2022/01/24 06:14:42;;;;;;;33.53;24.77;;;;;;;4.99;76.90;103315.38;5201406;28;20111;-74
2022/01/24 06:17:15;;;;;;;29.93;22.90;;;;;;;4.90;76.64;103311.03;5199047;28;20033;-73
2022/01/24 06:19:46;;;;;;;30.93;23.27;;;;;;;4.96;77.11;103312.75;5199914;28;20120;-73
2022/01/24 06:22:20;;;;;;;29.43;22.40;;;;;;;4.95;77.89;103313.63;5198488;28;20459;-73
2022/01/24 06:24:51;;;;;;;28.45;21.73;;;;;;;4.94;76.14;103307.56;5199850;28;20029;-74
2022/01/24 06:27:22;;;;;;;32.80;22.53;;;;;;;4.94;76.85;103306.72;5200189;28;20388;-74
2022/01/24 06:29:54;;;;;;;29.60;22.83;;;;;;;4.82;77.63;103312.69;5201118;28;20018;-74
2022/01/24 06:32:25;;;;;;;29.53;22.40;;;;;;;4.93;77.67;103315.34;5202239;28;20041;-73
2022/01/24 06:34:56;;;;;;;27.63;21.40;;;;;;;4.92;77.32;103309.28;5199017;28;20400;-73
2022/01/24 06:37:27;;;;;;;29.13;20.77;;;;;;;4.95;77.34;103311.91;5200156;28;20061;-73
2022/01/24 06:39:59;;;;;;;28.37;21.13;;;;;;;4.77;77.54;103320.47;5199661;28;20026;-74
2022/01/24 06:42:30;;;;;;;26.80;21.63;;;;;;;4.83;78.22;103307.50;5198619;28;20133;-74
2022/01/24 06:45:02;;;;;;;31.00;22.17;;;;;;;4.99;77.78;103310.19;5200527;28;20048;-74
2022/01/24 06:47:33;;;;;;;27.73;20.37;;;;;;;4.86;78.31;103311.84;5201187;28;20462;-74
2022/01/24 06:50:05;;;;;;;27.43;20.23;;;;;;;4.99;77.84;103310.19;5199693;28;20668;-74
2022/01/24 06:52:37;;;;;;;28.33;20.97;;;;;;;4.83;77.53;103317.88;5198640;28;20519;-74
2022/01/24 06:55:08;;;;;;;27.97;20.20;;;;;;;4.75;78.32;103322.19;5200013;28;20029;-74
2022/01/24 06:57:40;;;;;;;31.63;20.93;;;;;;;4.83;78.65;103319.63;5198670;28;20076;-73
2022/01/24 07:00:11;;;;;;;30.17;21.37;;;;;;;4.81;76.80;103323.97;5199175;28;20030;-73
2022/01/24 07:02:43;;;;;;;32.60;23.07;;;;;;;4.75;77.84;103324.78;5199165;28;20034;-72
2022/01/24 07:05:14;;;;;;;31.87;21.30;;;;;;;4.86;78.25;103323.97;5197652;28;20539;-71
2022/01/24 07:07:45;;;;;;;30.97;21.73;;;;;;;4.69;79.30;103316.97;5200072;28;20026;-71
2022/01/24 07:10:17;;;;;;;33.70;22.67;;;;;;;4.73;78.20;103318.72;5199300;28;20376;-74
2022/01/24 07:12:48;;;;;;;31.97;22.90;;;;;;;4.80;78.57;103328.28;5199944;28;20038;-74
2022/01/24 07:15:23;;;;;;;27.53;21.23;;;;;;;4.82;77.99;103334.34;5199709;28;20036;-73
2022/01/24 07:20:37;;;;;;;26.47;19.53;;;;;;;4.78;78.66;103327.38;5194085;28;20046;-73
2022/01/24 07:23:08;;;;;;;30.00;20.67;;;;;;;4.70;78.51;103314.38;5214080;28;20109;-73
2022/01/24 07:25:40;;;;;;;28.47;20.77;;;;;;;4.77;78.62;103329.97;5199569;28;20030;-73
2022/01/24 07:28:12;;;;;;;31.10;20.60;;;;;;;4.69;78.75;103333.44;5187385;28;20042;-74
2022/01/24 07:30:45;;;;;;;31.37;20.83;;;;;;;4.75;78.30;103332.56;5195710;28;20034;-71
2022/01/24 07:33:16;;;;;;;29.40;18.97;;;;;;;4.75;78.18;103340.38;5194015;28;20088;-73
2022/01/24 07:35:48;;;;;;;26.47;19.23;;;;;;;4.71;78.05;103333.44;5196558;28;20908;-72
2022/01/24 07:38:19;;;;;;;28.60;19.87;;;;;;;4.79;78.44;103333.47;5194392;28;20034;-73
2022/01/24 07:40:53;;;;;;;28.50;20.40;;;;;;;4.74;78.71;103338.63;5184358;28;21459;-74
2022/01/24 07:43:25;;;;;;;34.83;21.70;;;;;;;4.73;78.42;103329.09;5196962;28;20040;-73
2022/01/24 07:45:56;;;;;;;34.80;20.70;;;;;;;4.73;78.26;103336.88;5198586;28;20064;-71
2022/01/24 07:48:27;;;;;;;29.80;22.00;;;;;;;4.65;78.57;103325.59;5198480;28;20109;-74
2022/01/24 07:50:58;;;;;;;31.23;21.63;;;;;;;4.62;77.89;103323.88;5189337;28;20565;-73
2022/01/24 07:53:30;;;;;;;30.80;22.60;;;;;;;4.57;78.68;103329.00;5197958;28;20523;-72
2022/01/24 07:56:03;;;;;;;34.20;23.20;;;;;;;4.74;78.93;103350.75;5199858;28;20038;-72
2022/01/24 07:58:34;;;;;;;30.70;20.37;;;;;;;4.66;77.88;103348.97;5199325;28;20030;-71
2022/01/24 08:01:05;;;;;;;31.23;22.73;;;;;;;4.74;78.77;103362.00;5197576;28;20045;-71
2022/01/24 08:03:37;;;;;;;30.53;21.80;;;;;;;4.50;78.92;103353.22;5198180;28;20495;-74
2022/01/24 08:06:08;;;;;;;31.40;21.50;;;;;;;4.75;78.88;103358.53;5200032;28;20109;-73
2022/01/24 08:08:39;;;;;;;31.50;22.93;;;;;;;4.48;77.64;103370.50;5205172;28;20053;-71
2022/01/24 08:11:12;;;;;;;34.87;24.33;;;;;;;4.38;77.70;103372.13;5194223;28;20030;-70
2022/01/24 08:13:43;;;;;;;34.03;24.20;;;;;;;4.30;79.26;103371.22;5211879;28;20026;-70
2022/01/24 08:16:14;;;;;;;33.57;23.23;;;;;;;4.60;78.32;103375.78;5216694;28;20021;-69
2022/01/24 08:18:50;;;;;;;35.67;26.20;;;;;;;4.49;77.87;103367.03;5204267;28;20702;-70
2022/01/24 08:21:21;;;;;;;32.43;24.60;;;;;;;4.49;77.35;103374.81;5206340;28;20056;-69
2022/01/24 08:23:53;;;;;;;34.80;25.60;;;;;;;4.34;76.33;103376.47;5206740;28;20053;-69
2022/01/24 08:26:24;;;;;;;33.93;26.07;;;;;;;4.19;77.09;103373.75;5211250;28;20030;-74
2022/01/24 08:28:55;;;;;;;34.27;25.53;;;;;;;4.20;78.07;103359.91;5196837;28;20589;-74
2022/01/24 08:31:27;;;;;;;32.50;24.23;;;;;;;4.09;77.49;103363.28;5202312;28;20488;-71
2022/01/24 08:33:58;;;;;;;38.40;25.87;;;;;;;4.34;77.16;103375.59;5188016;28;20041;-70
2022/01/24 08:36:29;;;;;;;38.83;25.70;;;;;;;4.39;76.94;103365.22;5203635;28;20486;-68
2022/01/24 08:39:07;;;;;;;34.30;25.47;;;;;;;4.37;78.02;103370.41;5201607;28;20150;-77
2022/01/24 08:45:41;;;;;;;32.43;24.20;;;;;;;4.60;77.04;103369.72;5204807;28;20076;-72
2022/01/24 08:47:13;;;;;;;31.60;23.87;;;;;;;4.51;76.04;103365.31;5205118;28;20048;-73
2022/01/24 08:49:45;;;;;;;32.50;24.57;;;;;;;4.63;76.64;103371.44;5202233;28;20022;-74
2022/01/24 08:52:16;;;;;;;35.23;25.03;;;;;;;4.67;77.16;103376.69;5202129;28;20030;-76
2022/01/24 08:54:48;;;;;;;40.10;26.67;;;;;;;4.28;77.29;103373.81;5205200;28;20026;-72
2022/01/24 08:57:25;;;;;;;33.60;25.57;;;;;;;4.24;76.84;103372.06;5210788;28;20462;-71
2022/01/24 08:59:56;;;;;;;33.90;25.37;;;;;;;4.27;76.65;103384.19;5213145;28;20404;-70
2022/01/24 09:02:28;;;;;;;34.43;25.37;;;;;;;4.30;77.45;103372.09;5210367;28;20022;-71
2022/01/24 09:04:59;;;;;;;34.80;25.40;;;;;;;4.43;77.66;103382.56;5224979;28;20030;-70
2022/01/24 09:07:30;;;;;;;33.67;24.40;;;;;;;4.51;76.29;103374.81;5207720;28;20388;-71
2022/01/24 09:10:04;;;;;;;36.97;25.67;;;;;;;4.67;76.67;103381.88;5205343;28;20569;-71
2022/01/24 09:12:36;;;;;;;34.40;24.90;;;;;;;4.67;76.60;103381.00;5204996;28;20029;-71
2022/01/24 09:15:08;;;;;;;35.87;26.37;;;;;;;4.65;76.22;103382.72;5215030;28;20033;-71
2022/01/24 09:17:39;;;;;;;33.83;24.43;;;;;;;4.72;76.61;103379.28;5213416;28;20026;-73
2022/01/24 09:20:12;;;;;;;30.30;23.40;;;;;;;4.56;75.16;103381.78;5208481;28;20032;-73
2022/01/24 09:22:45;;;;;;;29.97;21.50;;;;;;;4.68;75.76;103381.00;5211517;28;20096;-70
2022/01/24 09:25:19;;;;;;;30.97;22.97;;;;;;;4.59;75.73;103389.59;5210971;28;20140;-72
2022/01/24 09:27:50;;;;;;;32.33;23.57;;;;;;;4.38;75.92;103384.28;5205482;28;20084;-71
2022/01/24 09:30:23;;;;;;;33.27;24.40;;;;;;;4.56;76.34;103386.09;5203136;28;20026;-71
2022/01/24 09:32:54;;;;;;;31.37;23.27;;;;;;;4.64;76.46;103380.97;5210543;28;20061;-71
2022/01/24 09:35:29;;;;;;;30.43;23.40;;;;;;;4.72;76.20;103382.78;5206212;28;20104;-72
2022/01/24 09:38:00;;;;;;;34.42;24.75;;;;;;;4.71;76.28;103377.56;5202766;28;20251;-73
2022/01/24 09:40:32;;;;;;;33.17;23.33;;;;;;;4.80;75.37;103382.78;5192840;28;20130;-73
2022/01/24 09:43:04;;;;;;;31.40;22.40;;;;;;;4.82;75.18;103373.28;5192995;28;20112;-73
2022/01/24 09:45:37;;;;;;;41.13;29.10;;;;;;;4.65;74.93;103378.38;5193368;28;20060;-72
2022/01/24 09:48:10;;;;;;;31.37;22.73;;;;;;;4.64;73.63;103370.59;5194055;28;20041;-71
2022/01/24 09:50:41;;;;;;;31.37;22.77;;;;;;;4.67;74.14;103386.19;5193795;28;20057;-70
2022/01/24 09:53:13;;;;;;;31.63;22.77;;;;;;;4.52;75.10;103382.63;5194406;28;20113;-69
2022/01/24 09:55:45;;;;;;;32.53;23.13;;;;;;;4.44;74.50;103373.91;5211601;28;20021;-73
2022/01/24 09:58:18;;;;;;;31.47;23.50;;;;;;;4.39;74.75;103375.63;5215097;28;20036;-73
2022/01/24 10:00:49;;;;;;;31.87;23.80;;;;;;;4.42;75.24;103375.63;5211649;28;20018;-73
2022/01/24 10:03:23;;;;;;;31.93;22.70;;;;;;;4.53;75.85;103374.00;5214481;28;20021;-73
2022/01/24 10:06:08;;;;;;;29.45;21.85;;;;;;;4.43;75.41;103372.19;5300230;27;1189158;-73
2022/01/24 10:08:39;;;;;;;30.00;22.10;;;;;;;4.54;74.98;103375.72;5326743;28;20032;-73
2022/01/24 10:11:17;;;;;;;32.13;23.33;;;;;;;4.75;75.08;103381.06;5320737;27;20054;-74
2022/01/24 10:16:45;;;;;;;31.20;23.03;;;;;;;4.47;74.51;103373.94;5325639;28;20032;-72
2022/01/24 10:19:21;;;;;;;30.30;20.37;;;;;;;4.65;74.63;103381.00;5328542;27;20038;-73
2022/01/24 10:21:56;;;;;;;29.00;20.70;;;;;;;4.57;74.65;103382.66;5327792;27;20032;-74
2022/01/24 10:24:37;;;;;;;29.77;22.30;;;;;;;4.66;74.67;103387.06;5329964;28;20020;-73
2022/01/24 10:27:15;;;;;;;33.90;21.20;;;;;;;4.55;75.23;103380.06;5325790;28;20026;-74
2022/01/24 10:29:53;;;;;;;29.33;20.67;;;;;;;4.58;75.95;103374.00;5318140;28;20027;-74
2022/01/24 10:32:40;;;;;;;29.07;22.43;;;;;;;4.78;75.79;103381.91;5323013;27;20227;-74
2022/01/24 10:35:35;;;;;;;28.97;20.07;;;;;;;4.85;74.92;103377.66;5329070;28;20477;-74
2022/01/24 10:38:42;;;;;;;26.70;18.63;;;;;;;4.95;74.78;103376.84;5317310;27;20020;-74
2022/01/24 10:43:55;;;;;;;29.77;20.37;;;;;;;4.94;73.86;103369.03;5321920;28;20028;-74
2022/01/24 10:46:27;;;;;;;28.20;18.77;;;;;;;5.04;73.40;103369.94;5328083;27;20437;-74
2022/01/24 10:49:04;;;;;;;27.83;19.30;;;;;;;4.99;73.38;103367.34;5322948;27;20446;-73
2022/01/24 10:51:38;;;;;;;26.57;18.83;;;;;;;5.11;73.33;103360.44;5329102;27;20064;-73
2022/01/24 10:54:09;;;;;;;24.70;17.90;;;;;;;5.04;73.30;103360.44;5329230;27;20470;-73
2022/01/24 10:56:43;;;;;;;27.70;19.57;;;;;;;5.03;72.69;103348.28;5318560;28;20023;-72
2022/01/24 10:59:16;;;;;;;28.65;20.08;;;;;;;5.16;72.68;103358.72;5328867;27;20034;-73
2022/01/24 11:01:59;;;;;;;28.20;19.77;;;;;;;5.22;73.62;103352.69;5325554;28;20066;-73
2022/01/24 11:04:32;;;;;;;26.10;18.23;;;;;;;5.12;72.05;103355.25;5323576;27;20132;-73
2022/01/24 11:07:03;;;;;;;28.37;18.40;;;;;;;5.11;71.92;103343.13;5325533;28;20023;-73
2022/01/24 11:09:37;;;;;;;24.83;18.27;;;;;;;5.13;71.90;103356.13;5321388;28;20019;-74
2022/01/24 11:12:11;;;;;;;27.07;19.17;;;;;;;4.85;72.78;103341.28;5329472;27;20039;-74
2022/01/24 11:14:43;;;;;;;;;;;;;;;5.22;73.50;103353.53;5329049;28;20045;-74
2022/01/24 11:17:20;;;;;;;25.37;19.57;;;;;;;5.00;72.89;103344.81;5309660;27;19923;-73
2022/01/24 11:19:57;;;;;;;26.57;19.40;;;;;;;5.04;72.34;103355.22;5311926;28;20008;-73
2022/01/24 11:22:31;;;;;;;25.70;19.10;;;;;;;4.98;72.17;103350.00;5313628;28;20389;-73
2022/01/24 11:25:06;;;;;;;;;;;;;;;5.23;73.57;103352.69;5316283;28;20469;-74
2022/01/24 11:27:47;;;;;;;26.37;18.77;;;;;;;5.06;73.00;103353.47;5316772;28;20006;-73
2022/01/24 11:30:40;;;;;;;28.77;20.30;;;;;;;5.11;73.16;103345.72;5306298;28;20282;-73
2022/01/24 11:33:22;;;;;;;27.20;19.60;;;;;;;5.10;73.50;103343.13;5311010;28;20020;-70
2022/01/24 11:36:00;;;;;;;29.83;20.37;;;;;;;5.13;71.84;103340.53;5300554;28;20069;-69
2022/01/24 11:38:38;;;;;;;28.33;19.77;;;;;;;5.06;72.77;103332.72;5303322;28;20115;-69
2022/01/24 11:41:21;;;;;;;27.67;20.73;;;;;;;5.22;73.00;103339.72;5293848;28;20418;-71
2022/01/24 11:43:59;;;;;;;27.97;20.03;;;;;;;5.14;73.99;103339.66;5302594;28;20024;-69
2022/01/24 11:46:34;;;;;;;26.40;19.77;;;;;;;5.27;73.00;103345.78;5299597;28;20039;-70
2022/01/24 11:49:19;;;;;;;28.47;20.23;;;;;;;5.25;73.44;103348.38;5297151;28;20030;-69
2022/01/24 11:52:02;;;;;;;29.25;21.67;;;;;;;5.26;71.62;103342.31;5300319;28;20028;-69
2022/01/24 11:55:00;;;;;;;30.93;20.30;;;;;;;5.31;72.26;103335.41;5300304;28;20085;-69
2022/01/24 11:57:42;;;;;;;28.13;19.57;;;;;;;5.29;72.46;103331.91;5297828;28;20657;-69
2022/01/24 12:00:21;;;;;;;28.53;19.93;;;;;;;5.20;72.74;103335.34;5295326;28;20035;-70
2022/01/24 12:02:56;;;;;;;28.13;19.80;;;;;;;5.18;72.38;103324.09;5314321;28;20043;-70
2022/01/24 12:05:44;;;;;;;;;;;;;;;5.48;73.56;103328.50;5310511;28;20040;-70
2022/01/24 12:08:41;;;;;;;26.73;19.80;;;;;;;5.45;72.91;103318.97;5315266;28;19912;-70
2022/01/24 12:11:16;;;;;;;27.77;19.57;;;;;;;5.51;72.04;103316.38;5303101;28;20023;-70
2022/01/24 12:13:53;;;;;;;27.40;20.17;;;;;;;5.22;72.19;103313.72;5314231;28;20023;-69
2022/01/24 12:16:36;;;;;;;26.30;19.47;;;;;;;5.43;72.01;103311.16;5309194;28;20542;-69
2022/01/24 12:19:08;;;;;;;27.90;19.37;;;;;;;5.20;70.96;103305.94;5304357;28;20260;-70
2022/01/24 12:21:41;;;;;;;27.53;19.93;;;;;;;5.25;71.18;103303.34;5312060;28;20024;-71
2022/01/24 12:24:13;;;;;;;28.53;20.63;;;;;;;5.13;70.67;103307.63;5315175;28;20023;-70
2022/01/24 12:26:47;;;;;;;28.60;20.97;;;;;;;5.10;71.25;103302.41;5315767;28;20019;-70
2022/01/24 12:29:21;;;;;;;31.73;21.73;;;;;;;5.14;71.29;103313.69;5296885;28;20031;-71
2022/01/24 12:31:58;;;;;;;29.10;20.48;;;;;;;5.14;71.48;103305.91;5293585;28;20030;-70
2022/01/24 12:34:37;;;;;;;28.93;20.20;;;;;;;5.28;71.30;103301.63;5294641;28;20028;-70
2022/01/24 12:37:22;;;;;;;29.10;20.90;;;;;;;5.49;71.67;103307.72;5312438;28;20440;-70
2022/01/24 12:40:07;;;;;;;29.33;20.83;;;;;;;5.45;70.58;103311.16;5307711;28;20046;-69
2022/01/24 12:42:48;;;;;;;29.42;20.75;;;;;;;5.53;69.87;103306.00;5309126;28;20028;-71
2022/01/24 12:48:17;;;;;;;29.37;20.50;;;;;;;5.46;70.83;103289.53;5313695;28;20027;-76
2022/01/24 12:50:51;;;;;;;27.97;21.20;;;;;;;5.49;70.80;103296.44;5309484;28;20023;-76
2022/01/24 12:53:22;;;;;;;31.83;22.63;;;;;;;5.47;70.51;103277.38;5310744;28;20028;-75
2022/01/24 12:56:02;;;;;;;29.30;21.10;;;;;;;5.63;70.58;103288.66;5315324;28;20080;-79
2022/01/24 12:58:39;;;;;;;32.30;22.27;;;;;;;5.66;70.53;103291.25;5303952;28;20020;-76
2022/01/24 13:01:29;;;;;;;29.80;21.83;;;;;;;5.59;70.17;103281.72;5302912;28;20416;-75
2022/01/24 13:04:08;;;;;;;30.83;21.27;;;;;;;5.64;69.98;103272.19;5311638;28;20024;-78
2022/01/24 13:06:43;;;;;;;35.17;24.00;;;;;;;5.87;70.63;103273.91;5301580;28;20046;-73
2022/01/24 13:09:18;;;;;;;29.20;22.20;;;;;;;5.92;70.94;103266.97;5294275;28;20032;-71
2022/01/24 13:12:00;;;;;;;30.73;22.30;;;;;;;6.09;71.56;103253.97;5301428;28;20032;-72
2022/01/24 13:14:47;;;;;;;30.47;21.30;;;;;;;5.92;69.19;103261.78;5301312;28;20020;-72
2022/01/24 13:20:55;;;;;;;33.27;23.80;;;;;;;6.05;69.93;103247.94;5296558;28;20103;-73
2022/01/24 13:23:28;;;;;;;27.80;21.20;;;;;;;6.26;68.74;103253.97;5310391;28;20031;-72
2022/01/24 13:25:59;;;;;;;29.67;21.63;;;;;;;6.40;68.64;103258.25;5308879;28;20598;-74
2022/01/24 13:28:30;;;;;;;29.97;22.67;;;;;;;6.41;68.86;103259.97;5313970;28;20668;-75
2022/01/24 13:31:03;;;;;;;31.90;24.73;;;;;;;6.02;69.03;103266.09;5306409;28;20051;-76
2022/01/24 13:33:39;;;;;;;29.57;23.20;;;;;;;6.26;68.28;103271.31;5310521;28;20026;-76